aviador You're here:

LFLN Decoded Metar

ST.-YAN in FRANCE
Report Time2017-10-20 12:00:00
UTC Time2017-10-20 12:25:41
Flight Rules vfr VFR
Wind320° at 04 kt
W.Decomp.*RWY 33: 3.9 kt HW 0.7 kt LCW
W.Rank320° ranks 6
Current wind is below 320° avg. (6.1)
Visibility9999 m
Phenomena:N/A
Clouds:N/A
Expected CloudBase > 1,600 ft AGL from Temp-Dew spread
CeilingNone
Temp16°C (ISA +3)
Dew Point12°C (77% RH)
AAT15.2°C
QNH1017 hPa
Density Alt1,161 ft
Elevation801 ft
Report Wrong Elevation
Raw Report
METAR LFLN 201200Z AUTO 32004KT 280V020 CAVOK 16/12 Q1017 NOSIG=

Extra information for LFLN:More info

Metar Taf Metar & Taf Last 4 Metars F.Rules Stats Wind Profile Meteogram Temp Stats Airport Information Weather charts Add Link Nearby VenuesMetar ALERT Operation Metar Decoded Social comments